sensor_id;sensor_type;location;lat;lon;timestamp;temperature;humidity
11426;DHT22;5769;47.998;7.788;2022-07-29T00:01:48;23.30;68.90
11426;DHT22;5769;47.998;7.788;2022-07-29T00:04:15;23.30;68.90
11426;DHT22;5769;47.998;7.788;2022-07-29T00:06:42;23.30;68.80
11426;DHT22;5769;47.998;7.788;2022-07-29T00:09:08;23.30;68.80
11426;DHT22;5769;47.998;7.788;2022-07-29T00:11:35;23.30;68.90
11426;DHT22;5769;47.998;7.788;2022-07-29T00:14:02;23.30;68.80
11426;DHT22;5769;47.998;7.788;2022-07-29T00:16:30;23.30;68.90
11426;DHT22;5769;47.998;7.788;2022-07-29T00:18:57;23.30;68.90
11426;DHT22;5769;47.998;7.788;2022-07-29T00:21:24;23.30;68.90
11426;DHT22;5769;47.998;7.788;2022-07-29T00:23:50;23.30;68.90
11426;DHT22;5769;47.998;7.788;2022-07-29T00:26:17;23.30;68.90
11426;DHT22;5769;47.998;7.788;2022-07-29T00:28:44;23.30;68.90
11426;DHT22;5769;47.998;7.788;2022-07-29T00:31:11;23.30;68.90
11426;DHT22;5769;47.998;7.788;2022-07-29T00:33:39;23.30;68.80
11426;DHT22;5769;47.998;7.788;2022-07-29T00:36:06;23.30;68.80
11426;DHT22;5769;47.998;7.788;2022-07-29T00:38:32;23.30;68.80
11426;DHT22;5769;47.998;7.788;2022-07-29T00:40:58;23.30;68.80
11426;DHT22;5769;47.998;7.788;2022-07-29T00:43:25;23.30;68.80
11426;DHT22;5769;47.998;7.788;2022-07-29T00:45:52;23.30;68.80
11426;DHT22;5769;47.998;7.788;2022-07-29T00:48:19;23.30;68.80
11426;DHT22;5769;47.998;7.788;2022-07-29T00:50:49;23.30;68.80
11426;DHT22;5769;47.998;7.788;2022-07-29T00:53:16;23.30;68.80
11426;DHT22;5769;47.998;7.788;2022-07-29T00:55:43;23.30;68.80
11426;DHT22;5769;47.998;7.788;2022-07-29T00:58:11;23.30;68.80
11426;DHT22;5769;47.998;7.788;2022-07-29T01:00:38;23.30;68.80
11426;DHT22;5769;47.998;7.788;2022-07-29T01:03:06;23.30;68.80
11426;DHT22;5769;47.998;7.788;2022-07-29T01:05:33;23.20;68.70
11426;DHT22;5769;47.998;7.788;2022-07-29T01:08:03;23.20;68.70
11426;DHT22;5769;47.998;7.788;2022-07-29T01:10:30;23.30;68.80
11426;DHT22;5769;47.998;7.788;2022-07-29T01:12:58;23.30;68.80
11426;DHT22;5769;47.998;7.788;2022-07-29T01:15:25;23.30;68.80
11426;DHT22;5769;47.998;7.788;2022-07-29T01:17:59;23.30;68.80
11426;DHT22;5769;47.998;7.788;2022-07-29T01:20:39;23.30;68.80
11426;DHT22;5769;47.998;7.788;2022-07-29T01:23:58;23.30;68.80
11426;DHT22;5769;47.998;7.788;2022-07-29T01:26:37;23.30;68.80
11426;DHT22;5769;47.998;7.788;2022-07-29T01:29:12;23.30;68.80
11426;DHT22;5769;47.998;7.788;2022-07-29T01:31:47;23.30;68.80
11426;DHT22;5769;47.998;7.788;2022-07-29T01:34:18;23.30;68.90
11426;DHT22;5769;47.998;7.788;2022-07-29T01:36:48;23.20;68.80
11426;DHT22;5769;47.998;7.788;2022-07-29T01:39:19;23.30;68.90
11426;DHT22;5769;47.998;7.788;2022-07-29T01:41:53;23.30;68.90
11426;DHT22;5769;47.998;7.788;2022-07-29T01:44:28;23.30;68.90
11426;DHT22;5769;47.998;7.788;2022-07-29T01:46:59;23.30;68.90
11426;DHT22;5769;47.998;7.788;2022-07-29T01:49:30;23.30;68.90
11426;DHT22;5769;47.998;7.788;2022-07-29T01:52:01;23.30;68.90
11426;DHT22;5769;47.998;7.788;2022-07-29T01:54:34;23.30;68.90
11426;DHT22;5769;47.998;7.788;2022-07-29T01:57:03;23.30;68.90
11426;DHT22;5769;47.998;7.788;2022-07-29T01:59:33;23.30;68.90
11426;DHT22;5769;47.998;7.788;2022-07-29T02:02:03;23.30;68.90
11426;DHT22;5769;47.998;7.788;2022-07-29T02:04:32;23.30;68.90
11426;DHT22;5769;47.998;7.788;2022-07-29T02:07:01;23.30;69.00
11426;DHT22;5769;47.998;7.788;2022-07-29T02:09:30;23.30;69.00
11426;DHT22;5769;47.998;7.788;2022-07-29T02:11:59;23.30;69.00
11426;DHT22;5769;47.998;7.788;2022-07-29T02:14:29;23.30;69.00
11426;DHT22;5769;47.998;7.788;2022-07-29T02:17:00;23.30;69.00
11426;DHT22;5769;47.998;7.788;2022-07-29T02:19:29;23.30;69.00
11426;DHT22;5769;47.998;7.788;2022-07-29T02:21:59;23.30;69.00
11426;DHT22;5769;47.998;7.788;2022-07-29T02:24:26;23.30;69.10
11426;DHT22;5769;47.998;7.788;2022-07-29T02:26:56;23.30;69.00
11426;DHT22;5769;47.998;7.788;2022-07-29T02:29:26;23.30;69.00
11426;DHT22;5769;47.998;7.788;2022-07-29T02:31:54;23.30;69.00
11426;DHT22;5769;47.998;7.788;2022-07-29T02:34:23;23.20;69.00
11426;DHT22;5769;47.998;7.788;2022-07-29T02:36:51;23.30;69.00
11426;DHT22;5769;47.998;7.788;2022-07-29T02:39:19;23.30;68.90
11426;DHT22;5769;47.998;7.788;2022-07-29T02:41:48;23.30;69.00
11426;DHT22;5769;47.998;7.788;2022-07-29T02:44:16;23.20;69.00
11426;DHT22;5769;47.998;7.788;2022-07-29T02:46:48;23.20;69.00
11426;DHT22;5769;47.998;7.788;2022-07-29T02:49:21;23.20;69.00
11426;DHT22;5769;47.998;7.788;2022-07-29T02:51:53;23.20;68.90
11426;DHT22;5769;47.998;7.788;2022-07-29T02:54:25;23.20;69.00
11426;DHT22;5769;47.998;7.788;2022-07-29T02:56:53;23.20;68.90
11426;DHT22;5769;47.998;7.788;2022-07-29T02:59:25;23.20;68.90
11426;DHT22;5769;47.998;7.788;2022-07-29T03:01:55;23.20;69.00
11426;DHT22;5769;47.998;7.788;2022-07-29T03:04:25;23.20;68.90
11426;DHT22;5769;47.998;7.788;2022-07-29T03:06:55;23.20;69.00
11426;DHT22;5769;47.998;7.788;2022-07-29T03:09:25;23.20;68.90
11426;DHT22;5769;47.998;7.788;2022-07-29T03:11:52;23.20;68.90
11426;DHT22;5769;47.998;7.788;2022-07-29T03:14:20;23.20;69.00
11426;DHT22;5769;47.998;7.788;2022-07-29T03:16:49;23.20;68.90
11426;DHT22;5769;47.998;7.788;2022-07-29T03:19:16;23.20;68.90
11426;DHT22;5769;47.998;7.788;2022-07-29T03:21:43;23.30;69.00
11426;DHT22;5769;47.998;7.788;2022-07-29T03:24:24;23.20;68.90
11426;DHT22;5769;47.998;7.788;2022-07-29T03:26:50;23.20;68.90
11426;DHT22;5769;47.998;7.788;2022-07-29T03:29:17;23.20;68.90
11426;DHT22;5769;47.998;7.788;2022-07-29T03:31:44;23.20;69.00
11426;DHT22;5769;47.998;7.788;2022-07-29T03:34:11;23.20;69.00
11426;DHT22;5769;47.998;7.788;2022-07-29T03:36:37;23.20;69.00
11426;DHT22;5769;47.998;7.788;2022-07-29T03:39:04;23.20;69.00
11426;DHT22;5769;47.998;7.788;2022-07-29T03:41:33;23.20;69.00
11426;DHT22;5769;47.998;7.788;2022-07-29T03:44:02;23.20;69.00
11426;DHT22;5769;47.998;7.788;2022-07-29T03:46:31;23.20;69.10
11426;DHT22;5769;47.998;7.788;2022-07-29T03:49:01;23.20;69.50
11426;DHT22;5769;47.998;7.788;2022-07-29T03:51:29;23.20;69.10
11426;DHT22;5769;47.998;7.788;2022-07-29T03:53:57;23.20;69.10
11426;DHT22;5769;47.998;7.788;2022-07-29T03:56:23;23.20;69.10
11426;DHT22;5769;47.998;7.788;2022-07-29T03:58:52;23.20;69.10
11426;DHT22;5769;47.998;7.788;2022-07-29T04:01:20;23.20;69.10
11426;DHT22;5769;47.998;7.788;2022-07-29T04:03:48;23.20;69.10
11426;DHT22;5769;47.998;7.788;2022-07-29T04:06:15;23.20;69.10
11426;DHT22;5769;47.998;7.788;2022-07-29T04:08:42;23.30;69.20
11426;DHT22;5769;47.998;7.788;2022-07-29T04:11:08;23.20;69.10
11426;DHT22;5769;47.998;7.788;2022-07-29T04:13:35;23.20;69.10
11426;DHT22;5769;47.998;7.788;2022-07-29T04:16:03;23.20;69.10
11426;DHT22;5769;47.998;7.788;2022-07-29T04:18:30;23.20;69.10
11426;DHT22;5769;47.998;7.788;2022-07-29T04:20:57;23.20;69.10
11426;DHT22;5769;47.998;7.788;2022-07-29T04:23:26;23.20;69.10
11426;DHT22;5769;47.998;7.788;2022-07-29T04:25:52;23.20;69.10
11426;DHT22;5769;47.998;7.788;2022-07-29T04:28:19;23.30;69.10
11426;DHT22;5769;47.998;7.788;2022-07-29T04:30:46;23.20;69.00
11426;DHT22;5769;47.998;7.788;2022-07-29T04:33:14;23.30;69.10
11426;DHT22;5769;47.998;7.788;2022-07-29T04:35:40;23.20;69.00
11426;DHT22;5769;47.998;7.788;2022-07-29T04:38:07;23.20;69.00
11426;DHT22;5769;47.998;7.788;2022-07-29T04:40:34;23.20;69.10
11426;DHT22;5769;47.998;7.788;2022-07-29T04:43:00;23.30;69.00
11426;DHT22;5769;47.998;7.788;2022-07-29T04:45:27;23.30;69.00
11426;DHT22;5769;47.998;7.788;2022-07-29T04:47:54;23.30;69.00
11426;DHT22;5769;47.998;7.788;2022-07-29T04:50:23;23.20;69.00
11426;DHT22;5769;47.998;7.788;2022-07-29T04:52:49;23.30;69.00
11426;DHT22;5769;47.998;7.788;2022-07-29T04:55:16;23.30;68.90
11426;DHT22;5769;47.998;7.788;2022-07-29T04:57:43;23.20;68.90
11426;DHT22;5769;47.998;7.788;2022-07-29T05:00:10;23.20;68.90
11426;DHT22;5769;47.998;7.788;2022-07-29T05:02:37;23.20;68.90
11426;DHT22;5769;47.998;7.788;2022-07-29T05:05:04;23.20;68.90
11426;DHT22;5769;47.998;7.788;2022-07-29T05:07:32;23.20;68.90
11426;DHT22;5769;47.998;7.788;2022-07-29T05:09:59;23.20;68.90
11426;DHT22;5769;47.998;7.788;2022-07-29T05:12:26;23.20;68.90
11426;DHT22;5769;47.998;7.788;2022-07-29T05:14:53;23.20;68.90
11426;DHT22;5769;47.998;7.788;2022-07-29T05:17:19;23.20;68.90
11426;DHT22;5769;47.998;7.788;2022-07-29T05:19:46;23.20;68.90
11426;DHT22;5769;47.998;7.788;2022-07-29T05:22:13;23.20;68.90
11426;DHT22;5769;47.998;7.788;2022-07-29T05:24:41;23.20;68.90
11426;DHT22;5769;47.998;7.788;2022-07-29T05:27:07;23.20;68.90
11426;DHT22;5769;47.998;7.788;2022-07-29T05:29:34;23.20;68.90
11426;DHT22;5769;47.998;7.788;2022-07-29T05:32:02;23.20;68.90
11426;DHT22;5769;47.998;7.788;2022-07-29T05:34:29;23.20;68.90
11426;DHT22;5769;47.998;7.788;2022-07-29T05:36:56;23.20;68.90
11426;DHT22;5769;47.998;7.788;2022-07-29T05:39:22;23.20;68.90
11426;DHT22;5769;47.998;7.788;2022-07-29T05:41:51;23.20;68.90
11426;DHT22;5769;47.998;7.788;2022-07-29T05:44:17;23.20;68.90
11426;DHT22;5769;47.998;7.788;2022-07-29T05:46:44;23.20;68.90
11426;DHT22;5769;47.998;7.788;2022-07-29T05:49:11;23.20;68.90
11426;DHT22;5769;47.998;7.788;2022-07-29T05:51:38;23.20;68.90
11426;DHT22;5769;47.998;7.788;2022-07-29T05:54:05;23.20;68.90
11426;DHT22;5769;47.998;7.788;2022-07-29T05:56:32;23.20;68.90
11426;DHT22;5769;47.998;7.788;2022-07-29T05:59:00;23.20;68.90
11426;DHT22;5769;47.998;7.788;2022-07-29T06:01:27;23.20;68.90
11426;DHT22;5769;47.998;7.788;2022-07-29T06:03:54;23.20;68.90
11426;DHT22;5769;47.998;7.788;2022-07-29T06:06:20;23.20;68.90
11426;DHT22;5769;47.998;7.788;2022-07-29T06:08:47;23.20;68.90
11426;DHT22;5769;47.998;7.788;2022-07-29T06:11:14;23.20;68.90
11426;DHT22;5769;47.998;7.788;2022-07-29T06:13:41;23.20;68.90
11426;DHT22;5769;47.998;7.788;2022-07-29T06:16:09;23.20;68.90
11426;DHT22;5769;47.998;7.788;2022-07-29T06:18:36;23.20;68.90
11426;DHT22;5769;47.998;7.788;2022-07-29T06:21:07;23.20;68.80
11426;DHT22;5769;47.998;7.788;2022-07-29T06:23:35;23.20;68.90
11426;DHT22;5769;47.998;7.788;2022-07-29T06:26:02;23.20;68.90
11426;DHT22;5769;47.998;7.788;2022-07-29T06:28:29;23.20;68.90
11426;DHT22;5769;47.998;7.788;2022-07-29T06:30:56;23.20;68.90
11426;DHT22;5769;47.998;7.788;2022-07-29T06:33:24;23.20;68.90
11426;DHT22;5769;47.998;7.788;2022-07-29T06:35:51;23.20;68.90
11426;DHT22;5769;47.998;7.788;2022-07-29T06:38:17;23.10;68.80
11426;DHT22;5769;47.998;7.788;2022-07-29T06:40:45;23.20;68.90
11426;DHT22;5769;47.998;7.788;2022-07-29T06:43:29;23.20;68.90
11426;DHT22;5769;47.998;7.788;2022-07-29T06:45:58;23.20;68.90
11426;DHT22;5769;47.998;7.788;2022-07-29T06:48:26;23.20;68.90
11426;DHT22;5769;47.998;7.788;2022-07-29T06:50:53;23.20;68.90
11426;DHT22;5769;47.998;7.788;2022-07-29T06:53:20;23.20;68.90
11426;DHT22;5769;47.998;7.788;2022-07-29T06:55:47;23.20;68.90
11426;DHT22;5769;47.998;7.788;2022-07-29T06:58:14;23.20;68.90
11426;DHT22;5769;47.998;7.788;2022-07-29T07:00:43;23.20;68.90
11426;DHT22;5769;47.998;7.788;2022-07-29T07:03:10;23.20;68.80
11426;DHT22;5769;47.998;7.788;2022-07-29T07:05:38;23.20;68.80
11426;DHT22;5769;47.998;7.788;2022-07-29T07:08:05;23.10;68.80
11426;DHT22;5769;47.998;7.788;2022-07-29T07:10:32;23.20;68.90
11426;DHT22;5769;47.998;7.788;2022-07-29T07:12:59;23.20;68.90
11426;DHT22;5769;47.998;7.788;2022-07-29T07:15:26;23.10;68.80
11426;DHT22;5769;47.998;7.788;2022-07-29T07:17:53;23.10;68.80
11426;DHT22;5769;47.998;7.788;2022-07-29T07:20:19;23.10;68.80
11426;DHT22;5769;47.998;7.788;2022-07-29T07:22:48;23.20;68.80
11426;DHT22;5769;47.998;7.788;2022-07-29T07:25:14;23.10;68.60
11426;DHT22;5769;47.998;7.788;2022-07-29T07:27:43;23.20;68.70
11426;DHT22;5769;47.998;7.788;2022-07-29T07:30:10;23.20;68.70
11426;DHT22;5769;47.998;7.788;2022-07-29T07:32:37;23.10;68.50
11426;DHT22;5769;47.998;7.788;2022-07-29T07:35:05;23.20;68.60
11426;DHT22;5769;47.998;7.788;2022-07-29T07:37:32;23.20;68.60
11426;DHT22;5769;47.998;7.788;2022-07-29T07:40:01;23.20;68.60
11426;DHT22;5769;47.998;7.788;2022-07-29T07:42:27;23.10;68.50
11426;DHT22;5769;47.998;7.788;2022-07-29T07:44:54;23.10;68.40
11426;DHT22;5769;47.998;7.788;2022-07-29T07:47:21;23.20;68.50
11426;DHT22;5769;47.998;7.788;2022-07-29T07:49:49;23.10;68.40
11426;DHT22;5769;47.998;7.788;2022-07-29T07:52:16;23.20;68.40
11426;DHT22;5769;47.998;7.788;2022-07-29T07:54:44;23.20;68.40
11426;DHT22;5769;47.998;7.788;2022-07-29T07:57:12;23.10;68.30
11426;DHT22;5769;47.998;7.788;2022-07-29T07:59:40;23.20;68.40
11426;DHT22;5769;47.998;7.788;2022-07-29T08:02:08;23.20;68.40
11426;DHT22;5769;47.998;7.788;2022-07-29T08:04:35;23.20;68.40
11426;DHT22;5769;47.998;7.788;2022-07-29T08:07:02;23.20;68.40
11426;DHT22;5769;47.998;7.788;2022-07-29T08:09:29;23.10;68.30
11426;DHT22;5769;47.998;7.788;2022-07-29T08:11:57;23.20;68.40
11426;DHT22;5769;47.998;7.788;2022-07-29T08:14:25;23.10;68.40
11426;DHT22;5769;47.998;7.788;2022-07-29T08:16:52;23.20;68.40
11426;DHT22;5769;47.998;7.788;2022-07-29T08:19:19;23.20;68.40
11426;DHT22;5769;47.998;7.788;2022-07-29T08:21:45;23.10;68.40
11426;DHT22;5769;47.998;7.788;2022-07-29T08:24:13;23.10;68.40
11426;DHT22;5769;47.998;7.788;2022-07-29T08:26:57;23.20;68.50
11426;DHT22;5769;47.998;7.788;2022-07-29T08:29:25;23.20;68.50
11426;DHT22;5769;47.998;7.788;2022-07-29T08:31:52;23.20;68.50
11426;DHT22;5769;47.998;7.788;2022-07-29T08:34:19;23.10;69.20
11426;DHT22;5769;47.998;7.788;2022-07-29T08:36:46;23.20;68.50
11426;DHT22;5769;47.998;7.788;2022-07-29T08:39:12;23.20;68.60
11426;DHT22;5769;47.998;7.788;2022-07-29T08:41:39;23.20;68.60
11426;DHT22;5769;47.998;7.788;2022-07-29T08:44:06;23.20;68.50
11426;DHT22;5769;47.998;7.788;2022-07-29T08:46:37;23.20;68.70
11426;DHT22;5769;47.998;7.788;2022-07-29T08:49:04;23.30;68.70
11426;DHT22;5769;47.998;7.788;2022-07-29T08:51:33;23.30;68.70
11426;DHT22;5769;47.998;7.788;2022-07-29T08:54:02;23.30;68.90
11426;DHT22;5769;47.998;7.788;2022-07-29T08:56:30;23.30;68.90
11426;DHT22;5769;47.998;7.788;2022-07-29T08:58:58;23.30;68.80
11426;DHT22;5769;47.998;7.788;2022-07-29T09:01:27;23.30;68.90
11426;DHT22;5769;47.998;7.788;2022-07-29T09:03:56;23.30;69.00
11426;DHT22;5769;47.998;7.788;2022-07-29T09:06:30;23.40;69.90
11426;DHT22;5769;47.998;7.788;2022-07-29T09:08:59;23.40;69.20
11426;DHT22;5769;47.998;7.788;2022-07-29T09:11:26;23.40;69.20
11426;DHT22;5769;47.998;7.788;2022-07-29T09:13:53;23.40;69.30
11426;DHT22;5769;47.998;7.788;2022-07-29T09:16:20;23.40;69.20
11426;DHT22;5769;47.998;7.788;2022-07-29T09:18:47;23.40;69.10
11426;DHT22;5769;47.998;7.788;2022-07-29T09:21:17;23.40;69.20
11426;DHT22;5769;47.998;7.788;2022-07-29T09:24:05;23.40;69.10
11426;DHT22;5769;47.998;7.788;2022-07-29T09:26:33;23.50;69.20
11426;DHT22;5769;47.998;7.788;2022-07-29T09:29:08;23.50;69.10
11426;DHT22;5769;47.998;7.788;2022-07-29T09:31:36;23.50;69.10
11426;DHT22;5769;47.998;7.788;2022-07-29T09:34:04;23.50;69.10
11426;DHT22;5769;47.998;7.788;2022-07-29T09:36:39;23.50;69.10
11426;DHT22;5769;47.998;7.788;2022-07-29T09:39:05;23.50;69.10
11426;DHT22;5769;47.998;7.788;2022-07-29T09:41:44;23.40;69.10
11426;DHT22;5769;47.998;7.788;2022-07-29T09:44:11;23.50;69.20
11426;DHT22;5769;47.998;7.788;2022-07-29T09:46:38;23.50;69.10
11426;DHT22;5769;47.998;7.788;2022-07-29T09:49:06;23.50;69.10
11426;DHT22;5769;47.998;7.788;2022-07-29T09:51:35;23.50;69.10
11426;DHT22;5769;47.998;7.788;2022-07-29T09:54:21;23.50;69.10
11426;DHT22;5769;47.998;7.788;2022-07-29T09:56:48;23.50;69.00
11426;DHT22;5769;47.998;7.788;2022-07-29T09:59:15;23.50;69.10
11426;DHT22;5769;47.998;7.788;2022-07-29T10:01:42;23.50;69.10
11426;DHT22;5769;47.998;7.788;2022-07-29T10:04:09;23.60;69.80
11426;DHT22;5769;47.998;7.788;2022-07-29T10:06:55;23.60;69.10
11426;DHT22;5769;47.998;7.788;2022-07-29T10:09:22;23.60;69.10
11426;DHT22;5769;47.998;7.788;2022-07-29T10:12:06;23.60;69.10
11426;DHT22;5769;47.998;7.788;2022-07-29T10:14:33;23.60;69.10
11426;DHT22;5769;47.998;7.788;2022-07-29T10:17:01;23.60;69.00
11426;DHT22;5769;47.998;7.788;2022-07-29T10:19:29;23.60;69.00
11426;DHT22;5769;47.998;7.788;2022-07-29T10:21:59;23.60;69.00
11426;DHT22;5769;47.998;7.788;2022-07-29T10:24:26;23.60;68.90
11426;DHT22;5769;47.998;7.788;2022-07-29T10:26:55;23.60;68.90
11426;DHT22;5769;47.998;7.788;2022-07-29T10:29:23;23.60;68.90
11426;DHT22;5769;47.998;7.788;2022-07-29T10:31:57;23.60;68.80
11426;DHT22;5769;47.998;7.788;2022-07-29T10:34:36;23.60;68.80
11426;DHT22;5769;47.998;7.788;2022-07-29T10:37:20;23.60;68.80
11426;DHT22;5769;47.998;7.788;2022-07-29T10:39:57;23.60;68.60
11426;DHT22;5769;47.998;7.788;2022-07-29T10:42:27;23.60;68.50
11426;DHT22;5769;47.998;7.788;2022-07-29T10:44:55;23.60;68.40
11426;DHT22;5769;47.998;7.788;2022-07-29T10:47:23;23.60;69.30
11426;DHT22;5769;47.998;7.788;2022-07-29T10:49:57;23.70;68.70
11426;DHT22;5769;47.998;7.788;2022-07-29T10:52:52;23.70;68.80
11426;DHT22;5769;47.998;7.788;2022-07-29T10:55:35;23.70;68.80
11426;DHT22;5769;47.998;7.788;2022-07-29T10:58:15;23.70;68.90
11426;DHT22;5769;47.998;7.788;2022-07-29T11:00:42;23.70;68.90
11426;DHT22;5769;47.998;7.788;2022-07-29T11:03:09;23.70;68.90
11426;DHT22;5769;47.998;7.788;2022-07-29T11:05:56;23.70;68.90
11426;DHT22;5769;47.998;7.788;2022-07-29T11:08:25;23.70;68.90
11426;DHT22;5769;47.998;7.788;2022-07-29T11:13:51;23.70;68.90
11426;DHT22;5769;47.998;7.788;2022-07-29T11:16:20;23.70;68.80
11426;DHT22;5769;47.998;7.788;2022-07-29T11:19:19;23.70;68.80
11426;DHT22;5769;47.998;7.788;2022-07-29T11:21:47;23.70;68.80
11426;DHT22;5769;47.998;7.788;2022-07-29T11:24:18;23.70;68.80
11426;DHT22;5769;47.998;7.788;2022-07-29T11:27:09;23.70;68.80
11426;DHT22;5769;47.998;7.788;2022-07-29T11:29:39;23.70;68.80
11426;DHT22;5769;47.998;7.788;2022-07-29T11:32:11;23.70;68.80
11426;DHT22;5769;47.998;7.788;2022-07-29T11:34:39;23.70;68.80
11426;DHT22;5769;47.998;7.788;2022-07-29T11:37:20;23.70;68.80
11426;DHT22;5769;47.998;7.788;2022-07-29T11:40:12;23.70;68.80
11426;DHT22;5769;47.998;7.788;2022-07-29T11:42:49;23.70;68.80
11426;DHT22;5769;47.998;7.788;2022-07-29T11:45:18;23.70;68.80
11426;DHT22;5769;47.998;7.788;2022-07-29T11:47:50;23.70;68.80
11426;DHT22;5769;47.998;7.788;2022-07-29T11:50:33;23.70;68.80
11426;DHT22;5769;47.998;7.788;2022-07-29T11:53:02;23.80;68.80
11426;DHT22;5769;47.998;7.788;2022-07-29T11:55:30;23.70;68.70
11426;DHT22;5769;47.998;7.788;2022-07-29T11:58:01;23.70;68.60
11426;DHT22;5769;47.998;7.788;2022-07-29T12:00:31;23.70;68.70
11426;DHT22;5769;47.998;7.788;2022-07-29T12:02:59;23.70;68.40
11426;DHT22;5769;47.998;7.788;2022-07-29T12:05:37;23.70;68.40
11426;DHT22;5769;47.998;7.788;2022-07-29T12:08:12;23.80;68.40
11426;DHT22;5769;47.998;7.788;2022-07-29T12:10:41;23.80;68.50
11426;DHT22;5769;47.998;7.788;2022-07-29T12:13:12;23.80;68.50
11426;DHT22;5769;47.998;7.788;2022-07-29T12:15:39;23.80;68.60
11426;DHT22;5769;47.998;7.788;2022-07-29T12:18:11;23.80;68.60
11426;DHT22;5769;47.998;7.788;2022-07-29T12:20:38;23.80;68.60
11426;DHT22;5769;47.998;7.788;2022-07-29T12:23:06;23.80;69.40
11426;DHT22;5769;47.998;7.788;2022-07-29T12:25:34;23.80;68.80
11426;DHT22;5769;47.998;7.788;2022-07-29T12:28:05;23.80;68.90
11426;DHT22;5769;47.998;7.788;2022-07-29T12:30:37;23.80;68.90
11426;DHT22;5769;47.998;7.788;2022-07-29T12:33:15;23.80;68.90
11426;DHT22;5769;47.998;7.788;2022-07-29T12:35:42;23.80;68.90
11426;DHT22;5769;47.998;7.788;2022-07-29T12:38:10;23.80;68.90
11426;DHT22;5769;47.998;7.788;2022-07-29T12:40:38;23.80;68.90
11426;DHT22;5769;47.998;7.788;2022-07-29T12:43:10;23.80;68.90
11426;DHT22;5769;47.998;7.788;2022-07-29T12:45:37;23.80;69.00
11426;DHT22;5769;47.998;7.788;2022-07-29T12:48:05;23.80;69.00
11426;DHT22;5769;47.998;7.788;2022-07-29T12:50:34;23.80;69.00
11426;DHT22;5769;47.998;7.788;2022-07-29T12:53:09;23.80;69.10
11426;DHT22;5769;47.998;7.788;2022-07-29T12:55:41;23.90;69.10
11426;DHT22;5769;47.998;7.788;2022-07-29T12:58:09;23.80;69.10
11426;DHT22;5769;47.998;7.788;2022-07-29T13:00:36;23.90;69.20
11426;DHT22;5769;47.998;7.788;2022-07-29T13:03:03;23.80;69.10
11426;DHT22;5769;47.998;7.788;2022-07-29T13:05:40;23.90;69.20
11426;DHT22;5769;47.998;7.788;2022-07-29T13:08:11;23.90;69.30
11426;DHT22;5769;47.998;7.788;2022-07-29T13:10:38;23.90;69.20
11426;DHT22;5769;47.998;7.788;2022-07-29T13:13:07;23.90;69.20
11426;DHT22;5769;47.998;7.788;2022-07-29T13:15:37;23.90;69.30
11426;DHT22;5769;47.998;7.788;2022-07-29T13:18:05;23.90;69.30
11426;DHT22;5769;47.998;7.788;2022-07-29T13:20:32;23.90;69.30
11426;DHT22;5769;47.998;7.788;2022-07-29T13:23:00;23.90;69.30
11426;DHT22;5769;47.998;7.788;2022-07-29T13:25:28;23.90;69.40
11426;DHT22;5769;47.998;7.788;2022-07-29T13:27:55;23.90;69.40
11426;DHT22;5769;47.998;7.788;2022-07-29T13:30:23;23.90;69.40
11426;DHT22;5769;47.998;7.788;2022-07-29T13:32:52;23.90;69.30
11426;DHT22;5769;47.998;7.788;2022-07-29T13:35:19;23.90;69.20
11426;DHT22;5769;47.998;7.788;2022-07-29T13:37:45;23.90;68.60
11426;DHT22;5769;47.998;7.788;2022-07-29T13:40:12;23.80;68.80
11426;DHT22;5769;47.998;7.788;2022-07-29T13:42:40;23.90;68.70
11426;DHT22;5769;47.998;7.788;2022-07-29T13:45:08;23.90;68.80
11426;DHT22;5769;47.998;7.788;2022-07-29T13:47:36;23.80;68.90
11426;DHT22;5769;47.998;7.788;2022-07-29T13:50:06;23.90;68.90
11426;DHT22;5769;47.998;7.788;2022-07-29T13:52:33;23.80;68.60
11426;DHT22;5769;47.998;7.788;2022-07-29T13:54:59;23.80;68.40
11426;DHT22;5769;47.998;7.788;2022-07-29T13:57:27;23.80;68.50
11426;DHT22;5769;47.998;7.788;2022-07-29T13:59:54;23.80;68.50
11426;DHT22;5769;47.998;7.788;2022-07-29T14:02:21;23.80;68.50
11426;DHT22;5769;47.998;7.788;2022-07-29T14:04:48;23.80;68.60
11426;DHT22;5769;47.998;7.788;2022-07-29T14:07:16;23.80;68.60
11426;DHT22;5769;47.998;7.788;2022-07-29T14:09:43;23.80;68.60
11426;DHT22;5769;47.998;7.788;2022-07-29T14:12:10;23.70;68.60
11426;DHT22;5769;47.998;7.788;2022-07-29T14:14:37;23.70;68.70
11426;DHT22;5769;47.998;7.788;2022-07-29T14:17:04;23.70;68.60
11426;DHT22;5769;47.998;7.788;2022-07-29T14:19:32;23.70;68.70
11426;DHT22;5769;47.998;7.788;2022-07-29T14:22:01;23.70;68.70
11426;DHT22;5769;47.998;7.788;2022-07-29T14:24:30;23.70;68.60
11426;DHT22;5769;47.998;7.788;2022-07-29T14:26:56;23.70;68.60
11426;DHT22;5769;47.998;7.788;2022-07-29T14:29:23;23.70;68.60
11426;DHT22;5769;47.998;7.788;2022-07-29T14:31:50;23.70;68.60
11426;DHT22;5769;47.998;7.788;2022-07-29T14:34:17;23.70;68.60
11426;DHT22;5769;47.998;7.788;2022-07-29T14:36:44;23.70;68.50
11426;DHT22;5769;47.998;7.788;2022-07-29T14:39:11;23.60;68.50
11426;DHT22;5769;47.998;7.788;2022-07-29T14:41:39;23.60;68.50
11426;DHT22;5769;47.998;7.788;2022-07-29T14:44:06;23.60;68.50
11426;DHT22;5769;47.998;7.788;2022-07-29T14:46:33;23.60;68.50
11426;DHT22;5769;47.998;7.788;2022-07-29T14:49:00;23.60;68.60
11426;DHT22;5769;47.998;7.788;2022-07-29T14:51:27;23.60;68.50
11426;DHT22;5769;47.998;7.788;2022-07-29T14:53:53;23.60;68.50
11426;DHT22;5769;47.998;7.788;2022-07-29T14:56:21;23.60;68.60
11426;DHT22;5769;47.998;7.788;2022-07-29T14:58:49;23.60;68.50
11426;DHT22;5769;47.998;7.788;2022-07-29T15:01:16;23.60;68.50
11426;DHT22;5769;47.998;7.788;2022-07-29T15:03:43;23.60;68.60
11426;DHT22;5769;47.998;7.788;2022-07-29T15:06:10;23.60;68.60
11426;DHT22;5769;47.998;7.788;2022-07-29T15:08:36;23.60;68.70
11426;DHT22;5769;47.998;7.788;2022-07-29T15:11:03;23.60;68.60
11426;DHT22;5769;47.998;7.788;2022-07-29T15:13:30;23.60;69.40
11426;DHT22;5769;47.998;7.788;2022-07-29T15:15:58;23.60;68.70
11426;DHT22;5769;47.998;7.788;2022-07-29T15:18:25;23.60;68.70
11426;DHT22;5769;47.998;7.788;2022-07-29T15:20:52;23.60;68.70
11426;DHT22;5769;47.998;7.788;2022-07-29T15:23:18;23.60;68.70
11426;DHT22;5769;47.998;7.788;2022-07-29T15:25:45;23.50;68.70
11426;DHT22;5769;47.998;7.788;2022-07-29T15:28:12;23.50;68.60
11426;DHT22;5769;47.998;7.788;2022-07-29T15:30:39;23.50;68.70
11426;DHT22;5769;47.998;7.788;2022-07-29T15:33:08;23.50;68.70
11426;DHT22;5769;47.998;7.788;2022-07-29T15:35:35;23.50;68.70
11426;DHT22;5769;47.998;7.788;2022-07-29T15:38:02;23.50;68.70
11426;DHT22;5769;47.998;7.788;2022-07-29T15:40:29;23.50;68.70
11426;DHT22;5769;47.998;7.788;2022-07-29T15:42:56;23.50;68.70
11426;DHT22;5769;47.998;7.788;2022-07-29T15:45:26;23.50;68.70
11426;DHT22;5769;47.998;7.788;2022-07-29T15:47:53;23.50;68.70
11426;DHT22;5769;47.998;7.788;2022-07-29T15:50:21;23.50;68.70
11426;DHT22;5769;47.998;7.788;2022-07-29T15:52:48;23.50;68.70
11426;DHT22;5769;47.998;7.788;2022-07-29T15:55:14;23.50;68.80
11426;DHT22;5769;47.998;7.788;2022-07-29T15:57:41;23.50;68.80
11426;DHT22;5769;47.998;7.788;2022-07-29T16:00:09;23.50;68.70